PWSweather.com
Personal Weather Stations
Station Observations
IDA15
IdafehnDE 26842

IdafehnDE 26842

Lat: 53.135815, Lon: 7.632699

Elevation: 0

Station Type: Netatmo NWS01

Latest ConditionsUpdated 4:14:00 PM GMT+01:01 Saturday, Mar 23, 2019
Currently Today's Max Today's Min Today's Average
Temperature 52.3°F11.3°C 52.5°F11.4°C 43.3°F6.3°C 47.4°F8.6°C
Dew Point 41.5°F5.3°C 44.4°F6.9°C 36.7°F2.6°C 40.5°F4.7°C
Winds 1.8 mph 2.9 kmh 2.5 mph -4.0 kmh - - 1.4 mph 2.3 kmh
Wind Gusts 4.9 mph7.9 kmh 9.4 mph15.1 kmh - -
Humidity 72% 85% 72% 82%
Pressure 30.39 in1029.1 mb 30.39 in1029.1 mb 30.27 in1025.1 mb -
Precipitation - 0.01 in0.3 mm - -
Hour Temp Dew Point Humidity Winds Wind Gusts Pressure Precip Precip Rate Daily Precip Total
04:14 PM 52.3°F11.3°C 41.5°F5.3°C 72% 1.8 mph 2.9 kmh 4.9 mph7.9 kmh 30.39 in1029.1 mb 0.00 in0.0 mm 0.00 in0.0 mm 0.01 in0.3 mm
04:03 PM 52.3°F11.3°C 41.5°F5.3°C 72% 2.5 mph S4.0 kmh S 7.4 mph11.9 kmh 30.39 in1029.1 mb 0.00 in0.0 mm 0.00 in0.0 mm 0.01 in0.3 mm
03:53 PM 52.5°F11.4°C 43.0°F6.1°C 75% 2.5 mph S4.0 kmh S 8.1 mph13.0 kmh 30.38 in1028.8 mb 0.00 in0.0 mm 0.00 in0.0 mm 0.01 in0.3 mm
03:44 PM 52.0°F11.1°C 44.1°F6.7°C 79% 0.7 mph NW1.1 kmh NW 4.9 mph7.9 kmh 30.38 in1028.8 mb 0.00 in0.0 mm 0.00 in0.0 mm 0.01 in0.3 mm
03:34 PM 52.0°F11.1°C 44.1°F6.7°C 79% 0.7 mph SW1.1 kmh SW 3.1 mph5.0 kmh 30.38 in1028.8 mb 0.00 in0.0 mm 0.00 in0.0 mm 0.01 in0.3 mm
03:23 PM 52.0°F11.1°C 44.4°F6.9°C 80% 1.8 mph WSW2.9 kmh WSW 3.8 mph6.1 kmh 30.38 in1028.8 mb 0.00 in0.0 mm 0.00 in0.0 mm 0.01 in0.3 mm
03:13 PM 51.3°F10.7°C 44.4°F6.9°C 82% 1.8 mph NW2.9 kmh NW 3.8 mph6.1 kmh 30.38 in1028.8 mb 0.00 in0.0 mm 0.00 in0.0 mm 0.01 in0.3 mm
03:04 PM 50.9°F10.5°C 44.4°F6.9°C 83% 1.8 mph NNW2.9 kmh NNW 3.1 mph5.0 kmh 30.38 in1028.8 mb 0.00 in0.0 mm 0.00 in0.0 mm 0.01 in0.3 mm
02:53 PM 50.5°F10.3°C 44.1°F6.7°C 83% 0.7 mph NNW1.1 kmh NNW 2.5 mph4.0 kmh 30.38 in1028.8 mb 0.00 in0.0 mm 0.00 in0.0 mm 0.01 in0.3 mm
02:43 PM 50.2°F10.1°C 44.2°F6.8°C 84% 0.7 mph NW1.1 kmh NW 3.1 mph5.0 kmh 30.38 in1028.8 mb 0.00 in0.0 mm 0.00 in0.0 mm 0.01 in0.3 mm
02:33 PM 49.8°F9.9°C 44.2°F6.8°C 85% 0.7 mph NW1.1 kmh NW 2.5 mph4.0 kmh 30.39 in1029.1 mb 0.00 in0.0 mm 0.00 in0.0 mm 0.01 in0.3 mm
02:24 PM 49.3°F9.6°C 43.7°F6.5°C 85% 1.8 mph NNW2.9 kmh NNW 3.8 mph6.1 kmh 30.39 in1029.1 mb 0.00 in0.0 mm 0.00 in0.0 mm 0.01 in0.3 mm
02:13 PM 48.9°F9.4°C 43.0°F6.1°C 84% 0.7 mph NW1.1 kmh NW 3.1 mph5.0 kmh 30.39 in1029.1 mb 0.01 in0.3 mm 0.00 in0.0 mm 0.01 in0.3 mm
02:03 PM 48.7°F9.3°C 42.8°F6.0°C 84% 0.7 mph NW1.1 kmh NW 3.8 mph6.1 kmh 30.39 in1029.1 mb 0.01 in0.3 mm 0.00 in0.0 mm 0.01 in0.3 mm
01:53 PM 48.9°F9.4°C 42.6°F5.9°C 83% 2.5 mph NW4.0 kmh NW 5.6 mph9.0 kmh 30.39 in1029.1 mb 0.01 in0.3 mm 0.02 in0.5 mm 0.01 in0.3 mm
01:43 PM 49.3°F9.6°C 43.0°F6.1°C 83% 1.8 mph NNW2.9 kmh NNW 4.9 mph7.9 kmh 30.39 in1029.1 mb 0.00 in0.0 mm 0.00 in0.0 mm 0.00 in0.0 mm
01:33 PM 49.6°F9.8°C 43.2°F6.2°C 83% 1.8 mph N2.9 kmh N 4.9 mph7.9 kmh 30.38 in1028.8 mb 0.00 in0.0 mm 0.00 in0.0 mm 0.00 in0.0 mm
01:23 PM 50.0°F10.0°C 43.2°F6.2°C 82% 1.8 mph S2.9 kmh S 3.8 mph6.1 kmh 30.38 in1028.8 mb 0.00 in0.0 mm 0.02 in0.5 mm 0.00 in0.0 mm
01:13 PM 50.2°F10.1°C 43.3°F6.3°C 82% 1.8 mph SW2.9 kmh SW 3.8 mph6.1 kmh 30.37 in1028.4 mb 0.00 in0.0 mm 0.00 in0.0 mm 0.00 in0.0 mm
01:03 PM 50.4°F10.2°C 43.5°F6.4°C 82% 1.8 mph S2.9 kmh S 4.9 mph7.9 kmh 30.37 in1028.4 mb 0.00 in0.0 mm 0.00 in0.0 mm 0.00 in0.0 mm
12:53 PM 50.5°F10.3°C 43.7°F6.5°C 82% 1.8 mph SW2.9 kmh SW 6.3 mph10.1 kmh 30.37 in1028.4 mb 0.00 in0.0 mm 0.00 in0.0 mm 0.00 in0.0 mm
12:43 PM 50.4°F10.2°C 43.5°F6.4°C 82% 2.5 mph SW4.0 kmh SW 6.3 mph10.1 kmh 30.37 in1028.4 mb 0.00 in0.0 mm 0.00 in0.0 mm 0.00 in0.0 mm
12:32 PM 50.2°F10.1°C 43.3°F6.3°C 82% 2.5 mph SW4.0 kmh SW 7.4 mph11.9 kmh 30.36 in1028.1 mb 0.00 in0.0 mm 0.00 in0.0 mm 0.00 in0.0 mm
12:22 PM 50.2°F10.1°C 43.3°F6.3°C 82% 2.5 mph SW4.0 kmh SW 5.6 mph9.0 kmh 30.36 in1028.1 mb 0.00 in0.0 mm 0.00 in0.0 mm 0.00 in0.0 mm
12:13 PM 50.0°F10.0°C 43.2°F6.2°C 82% 2.5 mph SW4.0 kmh SW 5.6 mph9.0 kmh 30.36 in1028.1 mb 0.00 in0.0 mm 0.00 in0.0 mm 0.00 in0.0 mm
12:03 PM 50.0°F10.0°C 43.2°F6.2°C 82% 2.5 mph SW4.0 kmh SW 5.6 mph9.0 kmh 30.36 in1028.1 mb 0.00 in0.0 mm 0.00 in0.0 mm 0.00 in0.0 mm
11:52 AM 49.8°F9.9°C 43.0°F6.1°C 82% 1.8 mph SW2.9 kmh SW 3.8 mph6.1 kmh 30.35 in1027.8 mb 0.00 in0.0 mm 0.00 in0.0 mm 0.00 in0.0 mm
11:33 AM 49.5°F9.7°C 42.6°F5.9°C 82% 2.5 mph SW4.0 kmh SW 5.6 mph9.0 kmh 30.35 in1027.8 mb 0.00 in0.0 mm 0.00 in0.0 mm 0.00 in0.0 mm
11:12 AM 49.5°F9.7°C 42.6°F5.9°C 82% 2.5 mph SW4.0 kmh SW 5.6 mph9.0 kmh 30.35 in1027.8 mb 0.00 in0.0 mm 0.00 in0.0 mm 0.00 in0.0 mm
11:02 AM 49.5°F9.7°C 42.6°F5.9°C 82% 2.5 mph SW4.0 kmh SW 6.3 mph10.1 kmh 30.35 in1027.8 mb 0.00 in0.0 mm 0.00 in0.0 mm 0.00 in0.0 mm
10:53 AM 49.3°F9.6°C 42.4°F5.8°C 82% 2.5 mph SW4.0 kmh SW 5.6 mph9.0 kmh 30.35 in1027.8 mb 0.00 in0.0 mm 0.00 in0.0 mm 0.00 in0.0 mm
10:32 AM 49.1°F9.5°C 42.8°F6.0°C 83% 2.5 mph SW4.0 kmh SW 5.6 mph9.0 kmh 30.34 in1027.4 mb 0.00 in0.0 mm 0.00 in0.0 mm 0.00 in0.0 mm
10:12 AM 48.2°F9.0°C 41.9°F5.5°C 83% 2.5 mph SW4.0 kmh SW 6.3 mph10.1 kmh 30.34 in1027.4 mb 0.00 in0.0 mm 0.00 in0.0 mm 0.00 in0.0 mm
10:02 AM 48.0°F8.9°C 41.7°F5.4°C 83% 2.5 mph SW4.0 kmh SW 5.6 mph9.0 kmh 30.33 in1027.1 mb 0.00 in0.0 mm 0.00 in0.0 mm 0.00 in0.0 mm
09:52 AM 47.8°F8.8°C 41.5°F5.3°C 83% 2.5 mph SW4.0 kmh SW 6.3 mph10.1 kmh 30.33 in1027.1 mb 0.00 in0.0 mm 0.00 in0.0 mm 0.00 in0.0 mm
09:32 AM 47.3°F8.5°C 41.0°F5.0°C 83% 2.5 mph SW4.0 kmh SW 6.3 mph10.1 kmh 30.33 in1027.1 mb 0.00 in0.0 mm 0.00 in0.0 mm 0.00 in0.0 mm
09:22 AM 46.9°F8.3°C 40.6°F4.8°C 83% 1.8 mph SW2.9 kmh SW 4.9 mph7.9 kmh 30.33 in1027.1 mb 0.00 in0.0 mm 0.00 in0.0 mm 0.00 in0.0 mm
09:12 AM 46.8°F8.2°C 40.5°F4.7°C 83% 1.8 mph SW2.9 kmh SW 5.6 mph9.0 kmh 30.32 in1026.8 mb 0.00 in0.0 mm 0.00 in0.0 mm 0.00 in0.0 mm
08:52 AM 46.4°F8.0°C 40.1°F4.5°C 83% 1.8 mph SW2.9 kmh SW 3.8 mph6.1 kmh 30.32 in1026.8 mb 0.00 in0.0 mm 0.00 in0.0 mm 0.00 in0.0 mm
08:42 AM 46.2°F7.9°C 39.9°F4.4°C 83% 0.7 mph SW1.1 kmh SW 3.1 mph5.0 kmh 30.32 in1026.8 mb 0.00 in0.0 mm 0.00 in0.0 mm 0.00 in0.0 mm
08:32 AM 45.9°F7.7°C 39.6°F4.2°C 83% 1.8 mph SW2.9 kmh SW 4.9 mph7.9 kmh 30.32 in1026.8 mb 0.00 in0.0 mm 0.00 in0.0 mm 0.00 in0.0 mm
08:21 AM 45.7°F7.6°C 39.4°F4.1°C 83% 1.8 mph SW2.9 kmh SW 4.9 mph7.9 kmh 30.32 in1026.8 mb 0.00 in0.0 mm 0.00 in0.0 mm 0.00 in0.0 mm
08:11 AM 45.7°F7.6°C 39.4°F4.1°C 83% 0.7 mph SW1.1 kmh SW 4.9 mph7.9 kmh 30.32 in1026.8 mb 0.00 in0.0 mm 0.00 in0.0 mm 0.00 in0.0 mm
08:02 AM 45.5°F7.5°C 39.6°F4.2°C 84% 0.7 mph SW1.1 kmh SW 3.8 mph6.1 kmh 30.31 in1026.4 mb 0.00 in0.0 mm 0.00 in0.0 mm 0.00 in0.0 mm
07:51 AM 44.8°F7.1°C 38.8°F3.8°C 84% 0.7 mph SW1.1 kmh SW 3.1 mph5.0 kmh 30.31 in1026.4 mb 0.00 in0.0 mm 0.00 in0.0 mm 0.00 in0.0 mm
07:41 AM 44.2°F6.8°C 38.3°F3.5°C 84% 0.7 mph SW1.1 kmh SW 4.9 mph7.9 kmh 30.31 in1026.4 mb 0.00 in0.0 mm 0.00 in0.0 mm 0.00 in0.0 mm
07:31 AM 43.9°F6.6°C 37.6°F3.1°C 83% 1.8 mph SW2.9 kmh SW 3.8 mph6.1 kmh 30.30 in1026.1 mb 0.00 in0.0 mm 0.00 in0.0 mm 0.00 in0.0 mm
07:22 AM 43.7°F6.5°C 37.4°F3.0°C 83% 0.7 mph SW1.1 kmh SW 1.8 mph2.9 kmh 30.30 in1026.1 mb 0.00 in0.0 mm 0.00 in0.0 mm 0.00 in0.0 mm
07:11 AM 43.5°F6.4°C 37.2°F2.9°C 83% 1.8 mph SW2.9 kmh SW 4.9 mph7.9 kmh 30.30 in1026.1 mb 0.00 in0.0 mm 0.00 in0.0 mm 0.00 in0.0 mm
07:01 AM 43.5°F6.4°C 37.2°F2.9°C 83% 0.7 mph SW1.1 kmh SW 3.8 mph6.1 kmh 30.31 in1026.4 mb 0.00 in0.0 mm 0.00 in0.0 mm 0.00 in0.0 mm
06:51 AM 43.3°F6.3°C 37.0°F2.8°C 83% 0.7 mph SW1.1 kmh SW 2.5 mph4.0 kmh 30.30 in1026.1 mb 0.00 in0.0 mm 0.00 in0.0 mm 0.00 in0.0 mm
06:41 AM 43.3°F6.3°C 36.7°F2.6°C 82% 1.8 mph SW2.9 kmh SW 3.1 mph5.0 kmh 30.30 in1026.1 mb 0.00 in0.0 mm 0.00 in0.0 mm 0.00 in0.0 mm
06:31 AM 43.3°F6.3°C 36.7°F2.6°C 82% 0.7 mph SW1.1 kmh SW 3.1 mph5.0 kmh 30.30 in1026.1 mb 0.00 in0.0 mm 0.00 in0.0 mm 0.00 in0.0 mm
06:21 AM 43.5°F6.4°C 36.9°F2.7°C 82% 0.7 mph SW1.1 kmh SW 3.1 mph5.0 kmh 30.29 in1025.7 mb 0.00 in0.0 mm 0.00 in0.0 mm 0.00 in0.0 mm
06:11 AM 43.7°F6.5°C 37.0°F2.8°C 82% 0.7 mph SW1.1 kmh SW 3.8 mph6.1 kmh 30.29 in1025.7 mb 0.00 in0.0 mm 0.00 in0.0 mm 0.00 in0.0 mm
06:01 AM 43.7°F6.5°C 36.7°F2.6°C 81% 0.7 mph SW1.1 kmh SW 2.5 mph4.0 kmh 30.29 in1025.7 mb 0.00 in0.0 mm 0.00 in0.0 mm 0.00 in0.0 mm
05:51 AM 43.9°F6.6°C 36.9°F2.7°C 81% 0.7 mph SW1.1 kmh SW 1.8 mph2.9 kmh 30.29 in1025.7 mb 0.00 in0.0 mm 0.00 in0.0 mm 0.00 in0.0 mm
05:41 AM 44.1°F6.7°C 37.0°F2.8°C 81% 0.7 mph SW1.1 kmh SW 3.8 mph6.1 kmh 30.29 in1025.7 mb 0.00 in0.0 mm 0.00 in0.0 mm 0.00 in0.0 mm
05:30 AM 44.2°F6.8°C 37.2°F2.9°C 81% 0.7 mph SW1.1 kmh SW 2.5 mph4.0 kmh 30.28 in1025.4 mb 0.00 in0.0 mm 0.00 in0.0 mm 0.00 in0.0 mm
05:21 AM 44.4°F6.9°C 37.4°F3.0°C 81% Calm Calm 1.8 mph2.9 kmh 30.28 in1025.4 mb 0.00 in0.0 mm 0.00 in0.0 mm 0.00 in0.0 mm
05:11 AM 44.6°F7.0°C 37.6°F3.1°C 81% Calm Calm 1.8 mph2.9 kmh 30.28 in1025.4 mb 0.00 in0.0 mm 0.00 in0.0 mm 0.00 in0.0 mm
05:01 AM 44.8°F7.1°C 37.8°F3.2°C 81% 0.7 mph SW1.1 kmh SW 1.8 mph2.9 kmh 30.29 in1025.7 mb 0.00 in0.0 mm 0.00 in0.0 mm 0.00 in0.0 mm
04:50 AM 45.0°F7.2°C 37.9°F3.3°C 81% 0.7 mph SSW1.1 kmh SSW 2.5 mph4.0 kmh 30.28 in1025.4 mb 0.00 in0.0 mm 0.00 in0.0 mm 0.00 in0.0 mm
04:41 AM 45.1°F7.3°C 37.8°F3.2°C 80% Calm Calm 1.8 mph2.9 kmh 30.28 in1025.4 mb 0.00 in0.0 mm 0.00 in0.0 mm 0.00 in0.0 mm
04:31 AM 45.3°F7.4°C 37.9°F3.3°C 80% Calm Calm 1.8 mph2.9 kmh 30.27 in1025.1 mb 0.00 in0.0 mm 0.00 in0.0 mm 0.00 in0.0 mm
04:20 AM 45.7°F7.6°C 38.3°F3.5°C 80% 0.7 mph SW1.1 kmh SW 2.5 mph4.0 kmh 30.27 in1025.1 mb 0.00 in0.0 mm 0.00 in0.0 mm 0.00 in0.0 mm
04:10 AM 45.7°F7.6°C 38.3°F3.5°C 80% Calm Calm 1.8 mph2.9 kmh 30.27 in1025.1 mb 0.00 in0.0 mm 0.00 in0.0 mm 0.00 in0.0 mm
04:00 AM 46.0°F7.8°C 38.7°F3.7°C 80% 0.7 mph SW1.1 kmh SW 3.1 mph5.0 kmh 30.27 in1025.1 mb 0.00 in0.0 mm 0.00 in0.0 mm 0.00 in0.0 mm
03:50 AM 46.2°F7.9°C 38.8°F3.8°C 80% 0.7 mph SW1.1 kmh SW 3.8 mph6.1 kmh 30.27 in1025.1 mb 0.00 in0.0 mm 0.00 in0.0 mm 0.00 in0.0 mm
03:40 AM 46.6°F8.1°C 39.0°F3.9°C 80% 0.7 mph SW1.1 kmh SW 3.1 mph5.0 kmh 30.27 in1025.1 mb 0.00 in0.0 mm 0.00 in0.0 mm 0.00 in0.0 mm
03:30 AM 46.4°F8.0°C 38.8°F3.8°C 80% 0.7 mph SW1.1 kmh SW 3.8 mph6.1 kmh 30.28 in1025.4 mb 0.00 in0.0 mm 0.00 in0.0 mm 0.00 in0.0 mm
03:20 AM 46.6°F8.1°C 39.0°F3.9°C 80% 0.7 mph SW1.1 kmh SW 3.8 mph6.1 kmh 30.27 in1025.1 mb 0.00 in0.0 mm 0.00 in0.0 mm 0.00 in0.0 mm
03:10 AM 46.6°F8.1°C 39.6°F4.2°C 81% 1.8 mph SW2.9 kmh SW 3.8 mph6.1 kmh 30.28 in1025.4 mb 0.00 in0.0 mm 0.00 in0.0 mm 0.00 in0.0 mm
03:00 AM 46.6°F8.1°C 39.6°F4.2°C 81% 1.8 mph SW2.9 kmh SW 4.9 mph7.9 kmh 30.28 in1025.4 mb 0.00 in0.0 mm 0.00 in0.0 mm 0.00 in0.0 mm
02:50 AM 46.6°F8.1°C 39.6°F4.2°C 81% 1.8 mph SW2.9 kmh SW 4.9 mph7.9 kmh 30.27 in1025.1 mb 0.00 in0.0 mm 0.00 in0.0 mm 0.00 in0.0 mm
02:40 AM 46.6°F8.1°C 39.6°F4.2°C 81% 1.8 mph SW2.9 kmh SW 3.8 mph6.1 kmh 30.27 in1025.1 mb 0.00 in0.0 mm 0.00 in0.0 mm 0.00 in0.0 mm
02:30 AM 46.6°F8.1°C 39.6°F4.2°C 81% 1.8 mph SW2.9 kmh SW 3.8 mph6.1 kmh 30.27 in1025.1 mb 0.00 in0.0 mm 0.00 in0.0 mm 0.00 in0.0 mm
02:20 AM 46.6°F8.1°C 39.6°F4.2°C 81% 0.7 mph SW1.1 kmh SW 2.5 mph4.0 kmh 30.27 in1025.1 mb 0.00 in0.0 mm 0.00 in0.0 mm 0.00 in0.0 mm
02:10 AM 46.6°F8.1°C 39.9°F4.4°C 82% 0.7 mph SW1.1 kmh SW 3.1 mph5.0 kmh 30.27 in1025.1 mb 0.00 in0.0 mm 0.00 in0.0 mm 0.00 in0.0 mm
01:59 AM 46.8°F8.2°C 40.1°F4.5°C 82% 0.7 mph SSW1.1 kmh SSW 3.1 mph5.0 kmh 30.27 in1025.1 mb 0.00 in0.0 mm 0.00 in0.0 mm 0.00 in0.0 mm
01:50 AM 46.8°F8.2°C 40.1°F4.5°C 82% 0.7 mph SW1.1 kmh SW 3.1 mph5.0 kmh 30.28 in1025.4 mb 0.00 in0.0 mm 0.00 in0.0 mm 0.00 in0.0 mm
01:40 AM 46.8°F8.2°C 40.1°F4.5°C 82% 1.8 mph SW2.9 kmh SW 5.6 mph9.0 kmh 30.28 in1025.4 mb 0.00 in0.0 mm 0.00 in0.0 mm 0.00 in0.0 mm
01:30 AM 46.8°F8.2°C 40.1°F4.5°C 82% 1.8 mph SE2.9 kmh SE 8.1 mph13.0 kmh 30.28 in1025.4 mb 0.00 in0.0 mm 0.00 in0.0 mm 0.00 in0.0 mm
01:19 AM 46.9°F8.3°C 40.6°F4.8°C 83% 1.8 mph SW2.9 kmh SW 8.1 mph13.0 kmh 30.28 in1025.4 mb 0.00 in0.0 mm 0.00 in0.0 mm 0.00 in0.0 mm
01:09 AM 47.1°F8.4°C 40.5°F4.7°C 82% 1.8 mph ESE2.9 kmh ESE 4.9 mph7.9 kmh 30.28 in1025.4 mb 0.00 in0.0 mm 0.00 in0.0 mm 0.00 in0.0 mm
01:00 AM 47.1°F8.4°C 40.5°F4.7°C 82% 2.5 mph SE4.0 kmh SE 8.1 mph13.0 kmh 30.28 in1025.4 mb 0.00 in0.0 mm 0.00 in0.0 mm 0.00 in0.0 mm
12:49 AM 47.3°F8.5°C 40.6°F4.8°C 82% 1.8 mph SSW2.9 kmh SSW 9.4 mph15.1 kmh 30.28 in1025.4 mb 0.00 in0.0 mm 0.00 in0.0 mm 0.00 in0.0 mm
12:39 AM 47.1°F8.4°C 40.5°F4.7°C 82% 1.8 mph SSE2.9 kmh SSE 3.8 mph6.1 kmh 30.27 in1025.1 mb 0.00 in0.0 mm 0.00 in0.0 mm 0.00 in0.0 mm
12:29 AM 47.3°F8.5°C 40.1°F4.5°C 81% 1.8 mph SE2.9 kmh SE 4.9 mph7.9 kmh 30.27 in1025.1 mb 0.00 in0.0 mm 0.00 in0.0 mm 0.00 in0.0 mm
12:19 AM 47.5°F8.6°C 40.3°F4.6°C 81% 1.8 mph SE2.9 kmh SE 5.6 mph9.0 kmh 30.27 in1025.1 mb 0.00 in0.0 mm 0.00 in0.0 mm 0.00 in0.0 mm